Time;durP1;ratioP1;P1;durP2;ratioP2;P2;SDS_P1;SDS_P2;PMS_P1;PMS_P2;Temp;Humidity;BMP_temperature;BMP_pressure;BME280_temperature;BME280_humidity;BME280_pressure;Samples;Min_cycle;Max_cycle;Signal;HPM_P1;HPM_P2
2023/01/01 00:01:12;;;;;;;9.93;4.68;;;15.70;99.90;;;;;;5053279;28;20190;-65
2023/01/01 00:03:38;;;;;;;13.02;5.20;;;15.80;99.90;;;;;;5054838;28;20158;-64
2023/01/01 00:06:08;;;;;;;11.43;5.30;;;15.80;99.90;;;;;;5054348;28;20176;-64
2023/01/01 00:08:35;;;;;;;13.90;7.93;;;15.80;99.90;;;;;;5054401;28;20253;-65
2023/01/01 00:11:05;;;;;;;12.15;4.93;;;15.80;99.90;;;;;;5053071;28;20174;-64
2023/01/01 00:13:31;;;;;;;7.43;5.20;;;15.70;99.90;;;;;;5053125;28;20182;-64
2023/01/01 00:16:10;;;;;;;9.13;4.85;;;15.70;99.90;;;;;;5054318;28;20171;-64
2023/01/01 00:18:37;;;;;;;18.80;11.55;;;15.70;99.90;;;;;;5054539;28;20186;-64
2023/01/01 00:21:04;;;;;;;8.30;4.85;;;15.70;99.90;;;;;;5052883;28;20178;-64
2023/01/01 00:23:30;;;;;;;8.75;4.32;;;15.60;99.90;;;;;;5053033;28;20174;-64
2023/01/01 00:25:57;;;;;;;17.15;5.68;;;15.60;99.90;;;;;;5054289;28;20703;-65
2023/01/01 00:28:22;;;;;;;8.98;5.18;;;15.60;99.90;;;;;;5052823;28;20601;-64
2023/01/01 00:30:48;;;;;;;9.88;5.75;;;15.50;99.90;;;;;;5053175;28;20202;-65
2023/01/01 00:33:14;;;;;;;12.70;5.10;;;15.60;99.90;;;;;;5054658;28;20203;-64
2023/01/01 00:35:39;;;;;;;13.75;5.60;;;15.60;99.90;;;;;;5053995;28;20272;-64
2023/01/01 00:38:06;;;;;;;7.68;5.10;;;15.60;99.90;;;;;;5036299;28;20547;-65
2023/01/01 00:40:31;;;;;;;8.43;5.22;;;15.50;99.90;;;;;;5054064;28;20221;-64
2023/01/01 00:42:57;;;;;;;9.95;4.75;;;15.50;99.90;;;;;;5036204;28;20231;-64
2023/01/01 00:45:23;;;;;;;8.48;5.25;;;15.50;99.90;;;;;;5054429;28;20178;-64
2023/01/01 00:47:51;;;;;;;8.48;5.35;;;15.50;99.90;;;;;;5054489;28;20178;-64
2023/01/01 00:50:17;;;;;;;7.65;5.00;;;15.50;99.90;;;;;;5036342;28;20207;-65
2023/01/01 00:52:43;;;;;;;14.27;6.88;;;15.50;99.90;;;;;;5054058;28;20277;-64
2023/01/01 00:55:10;;;;;;;15.25;6.50;;;15.50;99.90;;;;;;5054657;28;20248;-65
2023/01/01 00:57:35;;;;;;;20.60;7.82;;;15.60;99.90;;;;;;5053987;28;20170;-65
2023/01/01 01:00:03;;;;;;;9.65;6.43;;;15.60;99.90;;;;;;5053758;28;20729;-65
2023/01/01 01:02:28;;;;;;;9.02;6.13;;;15.50;99.90;;;;;;5036062;28;20193;-65
2023/01/01 01:04:54;;;;;;;13.52;5.90;;;15.50;99.90;;;;;;5053626;28;20174;-65
2023/01/01 01:07:20;;;;;;;13.07;6.05;;;15.40;99.90;;;;;;5053224;28;20213;-65
2023/01/01 01:09:46;;;;;;;11.90;6.32;;;15.50;99.90;;;;;;5054224;28;20218;-64
2023/01/01 01:12:11;;;;;;;9.90;6.80;;;15.40;99.90;;;;;;5053519;28;20251;-64
2023/01/01 01:14:37;;;;;;;14.75;6.65;;;15.40;99.90;;;;;;5053569;28;20642;-64
2023/01/01 01:17:03;;;;;;;11.00;6.88;;;15.40;99.90;;;;;;5054139;28;20167;-64
2023/01/01 01:19:28;;;;;;;14.73;6.68;;;15.40;99.90;;;;;;5053748;28;20551;-64
2023/01/01 01:21:54;;;;;;;9.40;6.25;;;15.40;99.90;;;;;;5053466;28;20190;-64
2023/01/01 01:24:20;;;;;;;14.32;6.75;;;15.40;99.90;;;;;;5035559;28;20181;-64
2023/01/01 01:26:45;;;;;;;12.88;7.15;;;15.40;99.90;;;;;;5053965;28;20174;-64
2023/01/01 01:29:11;;;;;;;12.82;7.35;;;15.40;99.90;;;;;;5053502;28;20226;-64
2023/01/01 01:31:37;;;;;;;9.57;6.32;;;15.40;99.90;;;;;;5053083;28;20280;-65
2023/01/01 01:34:03;;;;;;;11.57;6.28;;;15.40;99.90;;;;;;5053037;28;20527;-66
2023/01/01 01:36:29;;;;;;;10.93;6.53;;;15.40;99.90;;;;;;5053771;28;20169;-65
2023/01/01 01:38:55;;;;;;;8.65;6.03;;;15.30;99.90;;;;;;5053240;28;20194;-65
2023/01/01 01:41:23;;;;;;;11.10;6.13;;;15.20;99.90;;;;;;5053124;28;20592;-65
2023/01/01 01:44:01;;;;;;;11.95;6.03;;;15.10;99.90;;;;;;5035291;28;20178;-65
2023/01/01 01:46:43;;;;;;;9.52;5.63;;;15.20;99.90;;;;;;5053682;28;20246;-65
2023/01/01 01:49:20;;;;;;;8.18;5.70;;;15.20;99.90;;;;;;5052948;28;20200;-65
2023/01/01 01:51:47;;;;;;;9.68;5.93;;;15.10;99.90;;;;;;5053275;28;20182;-65
2023/01/01 01:54:20;;;;;;;11.27;5.28;;;15.10;99.90;;;;;;5053565;28;20179;-65
2023/01/01 01:56:51;;;;;;;9.35;5.25;;;15.10;99.90;;;;;;5053031;28;20159;-65
2023/01/01 01:59:19;;;;;;;7.18;4.57;;;15.20;99.90;;;;;;5035113;28;20249;-65
2023/01/01 02:01:44;;;;;;;7.95;4.90;;;15.10;99.90;;;;;;5035154;28;20221;-65
2023/01/01 02:04:11;;;;;;;10.32;4.40;;;15.10;99.90;;;;;;5035025;28;20205;-65
2023/01/01 02:06:38;;;;;;;6.90;4.30;;;15.10;99.90;;;;;;5052988;28;20182;-65
2023/01/01 02:09:06;;;;;;;6.80;4.18;;;15.00;99.90;;;;;;5053219;28;20190;-65
2023/01/01 02:11:32;;;;;;;8.98;4.22;;;15.00;99.90;;;;;;5052897;28;20199;-65
2023/01/01 02:14:00;;;;;;;7.30;3.63;;;15.10;99.90;;;;;;5034877;28;20178;-65
2023/01/01 02:16:31;;;;;;;9.80;4.10;;;15.00;99.90;;;;;;5052970;28;20635;-68
2023/01/01 02:19:00;;;;;;;7.22;3.92;;;15.00;99.90;;;;;;5054493;28;20194;-68
2023/01/01 02:21:34;;;;;;;8.23;4.07;;;15.00;99.90;;;;;;5056683;28;20182;-68
2023/01/01 02:24:09;;;;;;;5.47;3.60;;;15.00;99.90;;;;;;5056646;28;20181;-67
2023/01/01 02:26:37;;;;;;;8.48;3.50;;;15.00;99.90;;;;;;5056709;28;20166;-68
2023/01/01 02:29:06;;;;;;;5.47;3.33;;;14.90;99.90;;;;;;5056509;28;20201;-67
2023/01/01 02:31:45;;;;;;;6.78;3.53;;;15.00;99.90;;;;;;5056967;28;20285;-68
2023/01/01 02:34:16;;;;;;;5.82;3.72;;;15.00;99.90;;;;;;5038600;28;20177;-68
2023/01/01 02:36:50;;;;;;;5.15;3.20;;;14.90;99.90;;;;;;5057012;28;20166;-67
2023/01/01 02:39:20;;;;;;;8.82;3.40;;;14.90;99.90;;;;;;5056973;28;20321;-69
2023/01/01 02:41:49;;;;;;;7.63;3.15;;;14.90;99.90;;;;;;5039490;28;20610;-68
2023/01/01 02:44:18;;;;;;;4.93;3.30;;;14.90;99.90;;;;;;5057299;28;20180;-65
2023/01/01 02:46:44;;;;;;;4.65;2.72;;;14.90;99.90;;;;;;5038636;28;20714;-65
2023/01/01 02:49:10;;;;;;;4.57;3.38;;;14.90;99.90;;;;;;5056689;28;20226;-65
2023/01/01 02:52:03;;;;;;;10.95;3.42;;;14.90;99.90;;;;;;5037098;28;20200;-65
2023/01/01 02:55:01;;;;;;;5.65;2.90;;;14.90;99.90;;;;;;5056434;28;20169;-65
2023/01/01 02:57:34;;;;;;;6.82;2.95;;;14.90;99.90;;;;;;5038021;28;20189;-65
2023/01/01 03:00:23;;;;;;;8.60;2.83;;;14.90;99.90;;;;;;5055802;28;20198;-65
2023/01/01 03:03:07;;;;;;;7.78;3.17;;;14.90;99.90;;;;;;5055897;28;20186;-65
2023/01/01 03:06:21;;;;;;;7.57;2.78;;;14.90;99.90;;;;;;5037851;28;20273;-65
2023/01/01 03:08:57;;;;;;;4.22;3.00;;;14.90;99.90;;;;;;5037844;28;20186;-65
2023/01/01 03:11:27;;;;;;;4.95;2.70;;;14.90;99.90;;;;;;5055658;28;20164;-65
2023/01/01 03:14:12;;;;;;;5.03;2.97;;;14.90;99.90;;;;;;5055772;28;20217;-65
2023/01/01 03:16:49;;;;;;;3.25;2.92;;;14.90;99.90;;;;;;5037815;28;20174;-65
2023/01/01 03:19:24;;;;;;;4.53;2.90;;;15.00;99.90;;;;;;5055678;28;20182;-66
2023/01/01 03:21:53;;;;;;;5.07;3.00;;;14.90;99.90;;;;;;5056115;28;20265;-65
2023/01/01 03:24:53;;;;;;;6.55;3.00;;;14.90;99.90;;;;;;5055560;28;20173;-65
2023/01/01 03:27:24;;;;;;;6.53;3.00;;;14.80;99.90;;;;;;5055724;28;20634;-65
2023/01/01 03:29:53;;;;;;;6.18;3.13;;;14.80;99.90;;;;;;5055152;28;20202;-65
2023/01/01 03:32:59;;;;;;;3.17;2.88;;;14.80;99.90;;;;;;5037384;28;20301;-65
2023/01/01 03:35:16;;;;;;;6.50;3.30;;;14.80;99.90;;;;;;5054827;28;20280;-65
2023/01/01 03:37:45;;;;;;;5.50;2.80;;;14.80;99.90;;;;;;5055363;28;20170;-65
2023/01/01 03:40:13;;;;;;;7.03;3.28;;;14.80;99.90;;;;;;5055182;28;20183;-65
2023/01/01 03:42:44;;;;;;;8.00;2.83;;;14.80;99.90;;;;;;5037382;28;20209;-65
2023/01/01 03:45:37;;;;;;;3.13;2.58;;;14.80;99.90;;;;;;5055120;28;20167;-65
2023/01/01 03:48:04;;;;;;;4.40;3.00;;;14.70;99.90;;;;;;5055581;28;20565;-65
2023/01/01 03:50:57;;;;;;;3.58;2.75;;;14.70;99.90;;;;;;5054888;28;20195;-65
2023/01/01 03:53:47;;;;;;;4.80;2.85;;;14.80;99.90;;;;;;5055163;28;20194;-64
2023/01/01 03:56:29;;;;;;;7.47;3.13;;;14.80;99.90;;;;;;5055741;28;20159;-65
2023/01/01 03:59:18;;;;;;;6.07;2.95;;;14.80;99.90;;;;;;5055071;28;20186;-65
2023/01/01 04:01:50;;;;;;;7.55;2.80;;;14.80;99.90;;;;;;5054169;28;20193;-65
2023/01/01 04:04:17;;;;;;;4.93;2.78;;;14.70;99.90;;;;;;5055255;28;20159;-65
2023/01/01 04:06:43;;;;;;;5.93;2.83;;;14.70;99.90;;;;;;5054978;28;20178;-65
2023/01/01 04:09:14;;;;;;;4.75;2.90;;;14.70;99.90;;;;;;5054701;28;20328;-64
2023/01/01 04:14:40;;;;;;;7.57;3.10;;;14.80;99.90;;;;;;5055017;28;20162;-64
2023/01/01 04:17:08;;;;;;;5.45;2.65;;;14.80;99.90;;;;;;5036755;28;20176;-65
2023/01/01 04:19:34;;;;;;;3.97;2.85;;;14.70;99.90;;;;;;5054609;28;20667;-65
2023/01/01 04:22:00;;;;;;;5.50;2.90;;;14.70;99.90;;;;;;5036679;28;20265;-65
2023/01/01 04:24:26;;;;;;;5.88;3.00;;;14.70;99.90;;;;;;5054649;28;20175;-64
2023/01/01 04:26:53;;;;;;;6.80;2.85;;;14.80;99.90;;;;;;5036815;28;20178;-64
2023/01/01 04:29:19;;;;;;;3.70;2.80;;;14.80;99.90;;;;;;5054230;28;20252;-65
2023/01/01 04:31:46;;;;;;;7.75;2.95;;;14.80;99.90;;;;;;5054183;28;20574;-64
2023/01/01 04:34:12;;;;;;;6.75;2.70;;;14.80;99.90;;;;;;5054581;28;20171;-65
2023/01/01 04:36:38;;;;;;;4.72;3.15;;;14.80;99.90;;;;;;5054773;28;20170;-64
2023/01/01 04:39:04;;;;;;;4.72;2.65;;;14.80;99.90;;;;;;5054438;28;20199;-64
2023/01/01 04:41:30;;;;;;;8.18;2.50;;;14.80;99.90;;;;;;5053657;28;20167;-65
2023/01/01 04:43:56;;;;;;;6.90;3.30;;;14.80;99.90;;;;;;5054652;28;20163;-64
2023/01/01 04:46:22;;;;;;;6.20;2.95;;;14.70;99.90;;;;;;5054224;28;20554;-64
2023/01/01 04:48:49;;;;;;;5.25;2.70;;;14.80;99.90;;;;;;5054268;28;20167;-64
2023/01/01 04:51:17;;;;;;;6.07;2.97;;;14.80;99.90;;;;;;5053856;28;20193;-64
2023/01/01 04:53:43;;;;;;;3.85;2.60;;;14.80;99.90;;;;;;5053786;28;20228;-64
2023/01/01 04:56:11;;;;;;;4.90;2.97;;;14.90;99.90;;;;;;5054177;28;20178;-65
2023/01/01 04:58:39;;;;;;;4.63;2.60;;;14.80;99.90;;;;;;5053772;28;20230;-65
2023/01/01 05:01:05;;;;;;;4.80;2.95;;;14.80;99.90;;;;;;5035724;28;20194;-64
2023/01/01 05:03:32;;;;;;;4.45;2.75;;;14.80;99.90;;;;;;5054219;28;20269;-64
2023/01/01 05:06:05;;;;;;;7.90;3.15;;;14.70;99.90;;;;;;5053956;28;20304;-64
2023/01/01 05:08:33;;;;;;;5.35;3.08;;;14.80;99.90;;;;;;5054030;28;20544;-65
2023/01/01 05:11:04;;;;;;;4.68;2.88;;;14.80;99.90;;;;;;5053659;28;20197;-65
2023/01/01 05:13:30;;;;;;;7.05;3.10;;;14.70;99.90;;;;;;5035633;28;20675;-65
2023/01/01 05:16:00;;;;;;;6.05;2.90;;;14.60;99.90;;;;;;5053714;28;20241;-65
2023/01/01 05:18:26;;;;;;;5.72;2.90;;;14.60;99.90;;;;;;5053912;28;20158;-65
2023/01/01 05:20:52;;;;;;;7.55;3.08;;;14.60;99.90;;;;;;5053800;28;20186;-65
2023/01/01 05:23:18;;;;;;;4.10;2.90;;;14.60;99.90;;;;;;5054229;28;20193;-65
2023/01/01 05:25:43;;;;;;;4.38;3.10;;;14.60;99.90;;;;;;5035452;28;20178;-65
2023/01/01 05:28:09;;;;;;;4.75;2.88;;;14.50;99.90;;;;;;5053858;28;20175;-65
2023/01/01 05:30:39;;;;;;;5.55;2.85;;;14.50;99.90;;;;;;5053546;28;20206;-65
2023/01/01 05:33:04;;;;;;;6.97;3.10;;;14.50;99.90;;;;;;5053638;28;20233;-65
2023/01/01 05:35:30;;;;;;;5.93;3.05;;;14.50;99.90;;;;;;5053418;28;20217;-65
2023/01/01 05:37:56;;;;;;;8.10;3.13;;;14.40;99.90;;;;;;5035753;28;20197;-65
2023/01/01 05:40:22;;;;;;;5.65;2.67;;;14.50;99.90;;;;;;5054065;28;20650;-65
2023/01/01 05:42:47;;;;;;;6.35;2.92;;;14.40;99.90;;;;;;5053734;28;20270;-65
2023/01/01 05:45:13;;;;;;;3.25;2.65;;;14.50;99.90;;;;;;5053810;28;20588;-65
2023/01/01 05:47:39;;;;;;;4.22;2.70;;;14.50;99.90;;;;;;5053919;28;20201;-65
2023/01/01 05:50:05;;;;;;;6.50;2.90;;;14.40;99.90;;;;;;5035439;28;20630;-67
2023/01/01 05:52:31;;;;;;;5.03;2.95;;;14.40;99.90;;;;;;5053828;28;20289;-67
2023/01/01 05:54:57;;;;;;;4.15;2.90;;;14.40;99.90;;;;;;5056857;28;20254;-68
2023/01/01 05:57:23;;;;;;;3.63;2.80;;;14.40;99.90;;;;;;5057595;28;20635;-68
2023/01/01 05:59:49;;;;;;;6.40;3.03;;;14.40;99.90;;;;;;5057635;28;20214;-65
2023/01/01 06:02:14;;;;;;;4.75;3.35;;;14.40;99.90;;;;;;5057323;28;20220;-65
2023/01/01 06:04:40;;;;;;;5.07;2.90;;;14.40;99.90;;;;;;5057251;28;20709;-65
2023/01/01 06:07:06;;;;;;;6.50;2.90;;;14.50;99.90;;;;;;5056952;28;20198;-65
2023/01/01 06:09:32;;;;;;;8.88;3.33;;;14.50;99.90;;;;;;5057699;28;20553;-64
2023/01/01 06:11:57;;;;;;;5.35;2.92;;;14.50;99.90;;;;;;5057113;28;20307;-65
2023/01/01 06:14:23;;;;;;;5.53;3.00;;;14.40;99.90;;;;;;5057457;28;20202;-65
2023/01/01 06:16:49;;;;;;;4.10;3.10;;;14.40;99.90;;;;;;5057478;28;20167;-65
2023/01/01 06:19:14;;;;;;;4.88;2.75;;;14.40;99.90;;;;;;5039595;28;20198;-65
2023/01/01 06:21:40;;;;;;;5.30;2.67;;;14.40;99.90;;;;;;5038922;28;20189;-65
2023/01/01 06:24:07;;;;;;;3.60;2.70;;;14.30;99.90;;;;;;5057665;28;20194;-65
2023/01/01 06:26:33;;;;;;;8.32;3.13;;;14.40;99.90;;;;;;5057159;28;20188;-65
2023/01/01 06:29:00;;;;;;;3.53;3.08;;;14.40;99.90;;;;;;5057076;28;20269;-65
2023/01/01 06:31:27;;;;;;;4.40;2.90;;;14.50;99.90;;;;;;5057326;28;20198;-65
2023/01/01 06:33:53;;;;;;;3.55;2.90;;;14.50;99.90;;;;;;5039502;28;20179;-65
2023/01/01 06:36:22;;;;;;;4.07;2.88;;;14.40;99.90;;;;;;5055468;28;20658;-65
2023/01/01 06:38:50;;;;;;;3.85;2.80;;;14.30;99.90;;;;;;5057148;28;20510;-65
2023/01/01 06:41:19;;;;;;;5.22;2.72;;;14.20;99.90;;;;;;5056775;28;20173;-65
2023/01/01 06:43:46;;;;;;;4.75;3.00;;;14.20;99.90;;;;;;5056749;28;20179;-65
2023/01/01 06:46:27;;;;;;;7.18;3.53;;;14.20;99.90;;;;;;5056812;28;20194;-65
2023/01/01 06:48:56;;;;;;;3.80;2.88;;;14.10;99.90;;;;;;5056624;28;20254;-65
2023/01/01 06:51:27;;;;;;;3.50;3.08;;;14.10;99.90;;;;;;5056522;28;20174;-65
2023/01/01 06:53:56;;;;;;;3.60;3.00;;;14.10;99.90;;;;;;5056826;28;20170;-65
2023/01/01 06:56:22;;;;;;;3.38;3.08;;;14.10;99.90;;;;;;5055956;28;20537;-65
2023/01/01 06:58:48;;;;;;;6.40;3.20;;;14.10;99.90;;;;;;5055126;28;20171;-65
2023/01/01 07:01:19;;;;;;;3.65;3.00;;;14.10;99.90;;;;;;5056274;28;20191;-65
2023/01/01 07:03:51;;;;;;;3.60;2.72;;;14.10;99.90;;;;;;5054864;28;20185;-65
2023/01/01 07:06:16;;;;;;;5.13;3.38;;;14.10;99.90;;;;;;5056226;28;20166;-65
2023/01/01 07:08:42;;;;;;;8.25;3.13;;;14.10;99.90;;;;;;5056318;28;20174;-65
2023/01/01 07:11:08;;;;;;;4.45;3.00;;;14.10;99.90;;;;;;5056416;28;20685;-65
2023/01/01 07:13:34;;;;;;;8.07;3.55;;;14.00;99.90;;;;;;5054978;28;20252;-65
2023/01/01 07:16:00;;;;;;;5.03;3.20;;;14.00;99.90;;;;;;5055125;28;20199;-65
2023/01/01 07:18:26;;;;;;;7.00;3.08;;;14.00;99.90;;;;;;5057104;28;20248;-67
2023/01/01 07:20:56;;;;;;;3.92;2.70;;;14.00;99.90;;;;;;5056192;28;20193;-68
2023/01/01 07:23:22;;;;;;;3.78;3.13;;;14.00;99.90;;;;;;5056727;28;20186;-68
2023/01/01 07:25:49;;;;;;;7.65;3.55;;;13.90;99.90;;;;;;5056084;28;20686;-68
2023/01/01 07:28:15;;;;;;;4.15;3.10;;;13.90;99.90;;;;;;5056051;28;20175;-67
2023/01/01 07:30:41;;;;;;;4.13;2.90;;;13.90;99.90;;;;;;5055863;28;20209;-68
2023/01/01 07:33:12;;;;;;;4.00;2.78;;;13.90;99.90;;;;;;5054608;28;20225;-67
2023/01/01 07:35:38;;;;;;;4.55;3.38;;;13.90;99.90;;;;;;5055920;28;20266;-68
2023/01/01 07:38:04;;;;;;;6.55;3.05;;;13.90;99.90;;;;;;5055972;28;20253;-65
2023/01/01 07:40:30;;;;;;;6.63;3.03;;;13.90;99.90;;;;;;5055536;28;20194;-65
2023/01/01 07:42:56;;;;;;;5.00;3.05;;;13.90;99.90;;;;;;5037587;28;20178;-65
2023/01/01 07:45:23;;;;;;;6.15;3.50;;;13.90;99.90;;;;;;5038172;28;20235;-66
2023/01/01 07:47:54;;;;;;;4.88;3.35;;;13.90;99.90;;;;;;5037842;28;20178;-65
2023/01/01 07:50:21;;;;;;;3.90;2.83;;;13.90;99.90;;;;;;5037485;28;20203;-65
2023/01/01 07:52:47;;;;;;;8.63;2.95;;;13.90;99.90;;;;;;5037284;28;20198;-65
2023/01/01 07:55:14;;;;;;;3.92;3.13;;;13.90;99.90;;;;;;5055076;28;20174;-65
2023/01/01 07:57:41;;;;;;;4.40;3.35;;;13.90;99.90;;;;;;5055392;28;20534;-68
2023/01/01 08:00:08;;;;;;;6.05;3.00;;;13.90;99.90;;;;;;5037211;28;20195;-68
2023/01/01 08:02:34;;;;;;;5.05;3.10;;;13.90;99.90;;;;;;5055400;28;20255;-68
2023/01/01 08:04:59;;;;;;;4.20;2.72;;;14.00;99.90;;;;;;5055132;28;20202;-68
2023/01/01 08:07:25;;;;;;;5.43;3.42;;;14.00;99.90;;;;;;5055083;28;20220;-68
2023/01/01 08:09:51;;;;;;;3.25;2.88;;;13.90;99.90;;;;;;5054871;28;20740;-68
2023/01/01 08:12:16;;;;;;;7.15;3.40;;;14.00;99.90;;;;;;5055024;28;20284;-68
2023/01/01 08:14:42;;;;;;;4.72;3.08;;;13.90;99.90;;;;;;5054806;28;20166;-69
2023/01/01 08:17:08;;;;;;;5.82;3.40;;;13.90;99.90;;;;;;5054027;28;20625;-70
2023/01/01 08:19:34;;;;;;;6.30;3.75;;;13.80;99.90;;;;;;5055474;28;20277;-70
2023/01/01 08:21:59;;;;;;;8.10;3.53;;;13.80;99.90;;;;;;5055161;28;20261;-69
2023/01/01 08:24:25;;;;;;;4.03;3.08;;;13.70;99.90;;;;;;5054465;28;20231;-71
2023/01/01 08:26:51;;;;;;;5.63;3.40;;;13.70;99.90;;;;;;5037596;28;20186;-72
2023/01/01 08:29:17;;;;;;;3.53;2.90;;;13.60;99.90;;;;;;5037836;28;20214;-71
2023/01/01 08:31:43;;;;;;;3.78;3.05;;;13.70;99.90;;;;;;5055464;28;20209;-70
2023/01/01 08:34:09;;;;;;;4.85;3.15;;;13.60;99.90;;;;;;5055379;28;20197;-70
2023/01/01 08:36:36;;;;;;;6.20;3.33;;;13.60;99.90;;;;;;5055423;28;20155;-71
2023/01/01 08:39:02;;;;;;;7.70;3.13;;;13.60;99.90;;;;;;5036869;28;20663;-70
2023/01/01 08:41:28;;;;;;;7.15;3.50;;;13.60;99.90;;;;;;5054722;28;20194;-70
2023/01/01 08:43:54;;;;;;;5.25;3.40;;;13.60;99.90;;;;;;5055117;28;20254;-70
2023/01/01 08:46:19;;;;;;;7.63;3.42;;;13.60;99.90;;;;;;5054737;28;20261;-69
2023/01/01 08:48:45;;;;;;;7.95;3.20;;;13.60;99.90;;;;;;5036450;28;20170;-69
2023/01/01 08:51:11;;;;;;;4.40;3.10;;;13.60;99.90;;;;;;5054206;28;20561;-69
2023/01/01 08:53:36;;;;;;;4.97;3.22;;;13.60;99.90;;;;;;5054125;28;20198;-69
2023/01/01 08:56:07;;;;;;;10.45;3.50;;;13.70;99.90;;;;;;5054067;28;20178;-69
2023/01/01 08:58:35;;;;;;;11.10;3.33;;;13.70;99.90;;;;;;5054530;28;20226;-69
2023/01/01 09:01:01;;;;;;;7.60;3.45;;;13.70;99.90;;;;;;5037048;28;20293;-69
2023/01/01 09:03:27;;;;;;;5.07;3.22;;;13.70;99.90;;;;;;5036615;28;20232;-69
2023/01/01 09:05:53;;;;;;;7.88;3.50;;;13.70;99.90;;;;;;5053566;28;20174;-69
2023/01/01 09:08:20;;;;;;;8.43;3.35;;;13.80;99.90;;;;;;5036824;28;20179;-69
2023/01/01 09:10:46;;;;;;;11.90;3.35;;;13.80;99.90;;;;;;5037135;28;20194;-70
2023/01/01 09:13:13;;;;;;;5.07;3.20;;;13.80;99.90;;;;;;5054125;28;20202;-65
2023/01/01 09:15:41;;;;;;;6.85;3.30;;;13.80;99.90;;;;;;5053725;28;20163;-66
2023/01/01 09:18:08;;;;;;;6.93;3.20;;;13.80;99.90;;;;;;5054671;28;20582;-70
2023/01/01 09:20:34;;;;;;;9.23;3.38;;;13.80;99.90;;;;;;5053742;28;20186;-70
2023/01/01 09:23:00;;;;;;;6.25;3.05;;;13.80;99.90;;;;;;5054321;28;20178;-66
2023/01/01 09:25:26;;;;;;;8.27;3.20;;;13.90;99.90;;;;;;5054042;28;20262;-66
2023/01/01 09:28:03;;;;;;;6.35;3.10;;;13.80;99.90;;;;;;5053369;28;20186;-66
2023/01/01 09:30:28;;;;;;;5.85;3.78;;;13.80;99.90;;;;;;5053550;28;20252;-67
2023/01/01 09:32:54;;;;;;;5.00;3.15;;;13.80;99.90;;;;;;5035779;28;20210;-65
2023/01/01 09:35:20;;;;;;;4.72;3.00;;;13.80;99.90;;;;;;5053317;28;20743;-65
2023/01/01 09:37:47;;;;;;;6.53;3.42;;;13.80;99.90;;;;;;5053359;28;20166;-65
2023/01/01 09:40:24;;;;;;;8.55;3.40;;;13.90;99.90;;;;;;5053567;28;20186;-65
2023/01/01 09:43:17;;;;;;;4.70;3.10;;;13.90;99.90;;;;;;5053366;28;20662;-68
2023/01/01 09:45:59;;;;;;;7.45;3.72;;;14.00;99.90;;;;;;5035803;28;20181;-65
2023/01/01 09:48:28;;;;;;;7.97;3.20;;;14.00;99.90;;;;;;5053702;28;20639;-65
2023/01/01 09:50:54;;;;;;;3.72;3.05;;;14.00;99.90;;;;;;5053351;28;20281;-65
2023/01/01 09:53:48;;;;;;;6.55;3.20;;;14.00;99.90;;;;;;5053580;28;20681;-65
2023/01/01 09:56:22;;;;;;;6.35;3.35;;;14.00;99.90;;;;;;5053285;28;20166;-65
2023/01/01 09:58:48;;;;;;;6.35;3.47;;;14.00;99.90;;;;;;5053582;28;20205;-66
2023/01/01 10:01:32;;;;;;;6.20;3.13;;;14.00;99.90;;;;;;5053140;28;20235;-66
2023/01/01 10:04:22;;;;;;;6.68;3.17;;;14.00;99.90;;;;;;5053195;28;20186;-65
2023/01/01 10:07:11;;;;;;;4.78;3.55;;;14.00;99.90;;;;;;5053021;28;20691;-65
2023/01/01 10:09:53;;;;;;;5.97;3.17;;;14.10;99.90;;;;;;5053317;28;20202;-65
2023/01/01 10:12:41;;;;;;;6.68;3.10;;;14.10;99.90;;;;;;5053500;28;20187;-65
2023/01/01 10:15:22;;;;;;;8.38;3.35;;;14.10;99.90;;;;;;5053358;28;20167;-66
2023/01/01 10:17:57;;;;;;;6.35;3.13;;;14.10;99.90;;;;;;5053090;28;20159;-66
2023/01/01 10:20:32;;;;;;;5.82;3.47;;;14.10;99.90;;;;;;5034988;28;20244;-66
2023/01/01 10:23:15;;;;;;;4.40;2.90;;;14.20;99.90;;;;;;5053252;28;20177;-66
2023/01/01 10:25:41;;;;;;;5.35;3.42;;;14.20;99.90;;;;;;5053120;28;20159;-66
2023/01/01 10:28:22;;;;;;;5.20;3.22;;;14.20;99.90;;;;;;5052983;28;20179;-68
2023/01/01 10:30:52;;;;;;;5.47;3.25;;;14.20;99.90;;;;;;5053577;28;20202;-65
2023/01/01 10:33:17;;;;;;;6.22;3.10;;;14.10;99.90;;;;;;5053176;28;20194;-65
2023/01/01 10:35:47;;;;;;;4.00;3.03;;;14.10;99.90;;;;;;5052896;28;20193;-66
2023/01/01 10:38:24;;;;;;;3.45;2.95;;;14.10;99.90;;;;;;5052912;28;20546;-65
2023/01/01 10:40:56;;;;;;;7.95;3.35;;;14.10;99.90;;;;;;5038044;28;20572;-65
2023/01/01 10:43:21;;;;;;;5.10;3.00;;;14.10;99.90;;;;;;5056464;28;20526;-67
2023/01/01 10:45:53;;;;;;;4.18;3.00;;;14.10;99.90;;;;;;5056288;28;20179;-67
2023/01/01 10:48:24;;;;;;;5.57;3.28;;;14.10;99.90;;;;;;5038452;28;20260;-67
2023/01/01 10:51:04;;;;;;;6.13;3.08;;;14.10;99.90;;;;;;5056388;28;20197;-67
2023/01/01 10:53:40;;;;;;;5.72;3.17;;;14.10;99.90;;;;;;5056214;28;20273;-67
2023/01/01 10:56:10;;;;;;;3.63;2.85;;;14.10;99.90;;;;;;5056436;28;20169;-67
2023/01/01 10:58:38;;;;;;;7.90;3.30;;;14.10;99.90;;;;;;5056082;28;20174;-67
2023/01/01 11:01:06;;;;;;;7.93;3.40;;;14.20;99.90;;;;;;5056512;28;20639;-67
2023/01/01 11:03:32;;;;;;;9.25;3.78;;;14.10;99.90;;;;;;5056198;28;20178;-67
2023/01/01 11:06:18;;;;;;;6.18;3.38;;;14.10;99.90;;;;;;5037962;28;20178;-67
2023/01/01 11:08:51;;;;;;;5.85;2.95;;;14.10;99.90;;;;;;5056336;28;20162;-68
2023/01/01 11:11:25;;;;;;;8.10;3.88;;;14.10;99.90;;;;;;5056369;28;20158;-66
2023/01/01 11:13:53;;;;;;;4.70;3.17;;;14.10;99.90;;;;;;5056320;28;20611;-66
2023/01/01 11:16:20;;;;;;;8.35;3.25;;;14.10;99.90;;;;;;5056314;28;20197;-65
2023/01/01 11:18:48;;;;;;;7.88;3.65;;;14.10;99.90;;;;;;5038094;28;20240;-65
2023/01/01 11:21:20;;;;;;;7.13;3.42;;;14.00;99.90;;;;;;5055937;28;20665;-65
2023/01/01 11:23:47;;;;;;;5.28;3.00;;;14.00;99.90;;;;;;5055904;28;20193;-68
2023/01/01 11:26:16;;;;;;;7.10;3.05;;;14.00;99.90;;;;;;5055613;28;20658;-66
2023/01/01 11:28:57;;;;;;;7.38;3.58;;;14.10;99.90;;;;;;5055481;28;20602;-66
2023/01/01 11:31:27;;;;;;;5.70;3.20;;;14.00;99.90;;;;;;5056058;28;20534;-66
2023/01/01 11:33:55;;;;;;;5.32;2.92;;;14.00;99.90;;;;;;5055646;28;20613;-66
2023/01/01 11:36:31;;;;;;;7.35;3.25;;;14.00;99.90;;;;;;5055377;28;20190;-65
2023/01/01 11:39:25;;;;;;;6.93;3.22;;;14.00;99.90;;;;;;5055778;28;20245;-65
2023/01/01 11:41:53;;;;;;;8.48;3.03;;;14.00;99.90;;;;;;5055834;28;20159;-66
2023/01/01 11:44:33;;;;;;;5.85;2.95;;;14.00;99.90;;;;;;5055627;28;20175;-66
2023/01/01 11:46:59;;;;;;;7.57;3.15;;;14.00;99.90;;;;;;5056036;28;20166;-66
2023/01/01 11:49:28;;;;;;;9.02;3.35;;;14.00;99.90;;;;;;5037483;28;20202;-66
2023/01/01 11:51:54;;;;;;;4.68;3.30;;;14.00;99.90;;;;;;5055294;28;20244;-66
2023/01/01 11:54:36;;;;;;;5.07;3.03;;;14.00;99.90;;;;;;5054913;28;20631;-66
2023/01/01 11:57:12;;;;;;;7.40;3.38;;;14.00;99.90;;;;;;5037202;28;20182;-66
2023/01/01 11:59:48;;;;;;;9.25;3.40;;;14.00;99.90;;;;;;5054836;28;20189;-66
2023/01/01 12:02:28;;;;;;;7.80;3.05;;;14.00;99.90;;;;;;5054858;28;20181;-66
2023/01/01 12:05:00;;;;;;;7.00;3.38;;;14.00;99.90;;;;;;5055058;28;20163;-66
2023/01/01 12:07:35;;;;;;;4.38;3.30;;;14.00;99.90;;;;;;5055049;28;20159;-66
2023/01/01 12:10:42;;;;;;;7.70;3.45;;;13.90;99.90;;;;;;5054582;28;20242;-66
2023/01/01 12:13:33;;;;;;;6.22;3.00;;;14.00;99.90;;;;;;5041184;28;20213;-66
2023/01/01 12:16:21;;;;;;;8.48;3.13;;;14.00;99.90;;;;;;5054787;28;20162;-66
2023/01/01 12:19:04;;;;;;;7.95;3.70;;;13.90;99.90;;;;;;5054759;28;20190;-66
2023/01/01 12:21:33;;;;;;;6.05;3.22;;;13.90;99.90;;;;;;5054744;28;20182;-66
2023/01/01 12:23:59;;;;;;;7.80;3.05;;;13.90;99.90;;;;;;5054811;28;20171;-66
2023/01/01 12:26:48;;;;;;;5.72;3.40;;;14.00;99.90;;;;;;5054839;28;20185;-66
2023/01/01 12:29:13;;;;;;;8.05;3.28;;;13.90;99.90;;;;;;5054791;28;20190;-66
2023/01/01 12:31:56;;;;;;;4.93;3.00;;;13.90;99.90;;;;;;5054587;28;20658;-66
2023/01/01 12:34:43;;;;;;;5.78;3.33;;;13.90;99.90;;;;;;5036639;28;20201;-66
2023/01/01 12:37:15;;;;;;;5.80;3.22;;;13.90;99.90;;;;;;5052120;28;20685;-67
2023/01/01 12:39:41;;;;;;;9.73;3.15;;;13.90;99.90;;;;;;5053988;28;20202;-66
2023/01/01 12:42:19;;;;;;;7.65;3.47;;;13.90;99.90;;;;;;5053849;28;20171;-66
2023/01/01 12:45:25;;;;;;;4.20;2.70;;;13.90;99.90;;;;;;5052457;28;20182;-66
2023/01/01 12:48:06;;;;;;;5.00;3.10;;;13.90;99.90;;;;;;5054946;28;20159;-66
2023/01/01 12:51:13;;;;;;;7.13;2.80;;;13.90;99.90;;;;;;5053212;28;20234;-65
2023/01/01 12:53:44;;;;;;;5.47;3.08;;;13.90;99.90;;;;;;4999791;28;20219;-66
2023/01/01 12:56:22;;;;;;;6.20;3.20;;;14.00;99.90;;;;;;5053874;28;20213;-66
2023/01/01 12:59:03;;;;;;;6.93;3.17;;;13.90;99.90;;;;;;5052417;28;20219;-66
2023/01/01 13:01:33;;;;;;;4.82;2.90;;;13.90;99.90;;;;;;5054074;28;20243;-66
2023/01/01 13:04:20;;;;;;;6.68;3.35;;;14.00;99.90;;;;;;5052373;28;20170;-66
2023/01/01 13:07:02;;;;;;;5.70;3.20;;;14.00;99.90;;;;;;5052452;28;20274;-66